Terminal Aerodrome Forecast
Issued by NWS Pittsburgh, PA

Current Version | Previous Version | Text Only | Print | Product List | Glossary Off
Versions: 1 2 3 4 5 6 7 8 9 10 11 12 13 14 15 16 17 18 19 20 21 22 23 24 25 26 27 28 29 30 31

000
FTUS41 KPBZ 201700 RRA
TAFPIT
TAF
KPIT 201745Z 2018/2124 20011KT P6SM FEW015 SCT060 BKN250
     FM210200 23004KT P6SM SCT040
     FM210700 VRB03KT 5SM BR SCT040
     FM211400 24006KT P6SM BKN040=

USA.gov is the U.S. government's official web portal to all federal, state and local government web resources and services.